createdAt,value
2022-11-22T00:02:02.077Z,0.31
2022-11-22T00:04:28.521Z,0.30
2022-11-22T00:06:54.856Z,0.34
2022-11-22T00:09:21.222Z,0.31
2022-11-22T00:11:47.569Z,0.32
2022-11-22T00:14:14.061Z,0.33
2022-11-22T00:16:40.409Z,0.32
2022-11-22T00:19:06.740Z,0.36
2022-11-22T00:21:33.095Z,0.38
2022-11-22T00:23:59.445Z,0.40
2022-11-22T00:26:25.806Z,0.44
2022-11-22T00:28:52.147Z,0.44
2022-11-22T00:31:18.535Z,0.44
2022-11-22T00:33:44.895Z,0.45
2022-11-22T00:36:11.388Z,0.43
2022-11-22T00:38:37.735Z,0.43
2022-11-22T00:41:04.288Z,0.46
2022-11-22T00:43:31.444Z,0.43
2022-11-22T00:45:57.806Z,0.47
2022-11-22T00:48:24.123Z,0.46
2022-11-22T00:50:50.493Z,0.47
2022-11-22T00:53:16.875Z,0.48
2022-11-22T00:55:44.638Z,0.48
2022-11-22T00:58:11.114Z,0.49
2022-11-22T01:00:37.564Z,0.50
2022-11-22T01:03:04.015Z,0.52
2022-11-22T01:05:30.361Z,0.54
2022-11-22T01:07:56.757Z,0.55
2022-11-22T01:10:23.311Z,0.55
2022-11-22T01:12:49.674Z,0.56
2022-11-22T01:15:16.068Z,0.55
2022-11-22T01:17:42.454Z,0.54
2022-11-22T01:20:09.343Z,0.57
2022-11-22T01:22:35.687Z,0.59
2022-11-22T01:25:02.048Z,0.63
2022-11-22T01:27:28.528Z,0.61
2022-11-22T01:29:54.891Z,0.62
2022-11-22T01:32:21.252Z,0.64
2022-11-22T01:34:47.637Z,0.62
2022-11-22T01:37:15.255Z,0.63
2022-11-22T01:39:41.604Z,0.64
2022-11-22T01:42:08.985Z,0.63
2022-11-22T01:44:35.323Z,0.63
2022-11-22T01:47:11.276Z,0.62
2022-11-22T01:50:00.209Z,0.69
2022-11-22T01:52:27.952Z,0.70
2022-11-22T01:54:57.007Z,0.68
2022-11-22T01:57:25.378Z,0.70
2022-11-22T02:00:01.528Z,0.71
2022-11-22T02:02:27.901Z,0.71
2022-11-22T02:04:54.378Z,0.73
2022-11-22T02:07:37.937Z,0.72
2022-11-22T02:10:04.753Z,0.76
2022-11-22T02:12:31.787Z,0.73
2022-11-22T02:14:58.316Z,0.77
2022-11-22T02:17:27.879Z,0.79
2022-11-22T02:19:54.238Z,0.81
2022-11-22T02:22:32.818Z,0.80
2022-11-22T02:25:09.299Z,0.81
2022-11-22T02:27:35.725Z,0.82
2022-11-22T02:30:02.089Z,0.82
2022-11-22T02:32:28.436Z,0.78
2022-11-22T02:34:54.808Z,0.81
2022-11-22T02:37:27.443Z,0.80
2022-11-22T02:39:57.420Z,0.82
2022-11-22T02:42:25.323Z,0.84
2022-11-22T02:44:51.714Z,0.84
2022-11-22T02:47:18.068Z,0.84
2022-11-22T02:49:44.536Z,0.87
2022-11-22T02:52:10.873Z,0.88
2022-11-22T02:54:37.242Z,0.90
2022-11-22T02:57:03.665Z,0.89
2022-11-22T02:59:30.145Z,0.87
2022-11-22T03:02:02.813Z,0.90
2022-11-22T03:04:29.742Z,0.91
2022-11-22T03:06:57.609Z,0.91
2022-11-22T03:09:25.358Z,0.92
2022-11-22T03:11:51.897Z,0.96
2022-11-22T03:14:18.339Z,0.97
2022-11-22T03:16:44.924Z,0.95
2022-11-22T03:19:11.442Z,0.99
2022-11-22T03:21:38.473Z,0.99
2022-11-22T03:24:06.352Z,0.95
2022-11-22T03:26:32.853Z,0.96
2022-11-22T03:28:59.256Z,0.99
2022-11-22T03:31:25.682Z,1.00
2022-11-22T03:33:52.165Z,0.98
2022-11-22T03:36:18.772Z,1.03
2022-11-22T03:38:45.145Z,1.04
2022-11-22T03:41:11.539Z,1.05
2022-11-22T03:43:38.171Z,1.04
2022-11-22T03:46:04.574Z,1.02
2022-11-22T03:48:31.018Z,1.00
2022-11-22T03:51:04.913Z,1.06
2022-11-22T03:53:31.910Z,1.09
2022-11-22T03:55:58.253Z,1.09
2022-11-22T03:58:24.794Z,1.08
2022-11-22T04:00:51.166Z,1.11
2022-11-22T04:03:17.566Z,1.14
2022-11-22T04:05:44.977Z,1.13
2022-11-22T04:08:11.374Z,1.14
2022-11-22T04:10:37.716Z,1.16
2022-11-22T04:13:04.093Z,1.18
2022-11-22T04:15:30.432Z,1.16
2022-11-22T04:17:56.801Z,1.17
2022-11-22T04:20:43.431Z,1.18
2022-11-22T04:23:13.485Z,1.19
2022-11-22T04:25:41.278Z,1.22
2022-11-22T04:28:08.260Z,1.24
2022-11-22T04:30:53.239Z,1.24
2022-11-22T04:33:19.800Z,1.24
2022-11-22T04:35:46.361Z,1.24
2022-11-22T04:38:12.941Z,1.22
2022-11-22T04:40:39.473Z,1.24
2022-11-22T04:43:24.989Z,1.23
2022-11-22T04:45:51.410Z,1.24
2022-11-22T04:48:18.110Z,1.27
2022-11-22T04:51:03.558Z,1.28
2022-11-22T04:53:30.249Z,1.32
2022-11-22T04:55:56.753Z,1.33
2022-11-22T04:58:23.171Z,1.35
2022-11-22T05:00:49.595Z,1.37
2022-11-22T05:03:16.048Z,1.39
2022-11-22T05:05:43.518Z,1.38
2022-11-22T05:08:09.934Z,1.37
2022-11-22T05:10:55.419Z,1.38
2022-11-22T05:13:23.251Z,1.40
2022-11-22T05:15:51.320Z,1.41
2022-11-22T05:18:18.712Z,1.40
2022-11-22T05:20:45.350Z,1.41
2022-11-22T05:23:30.560Z,1.43
2022-11-22T05:25:56.970Z,1.45
2022-11-22T05:28:23.341Z,1.44
2022-11-22T05:30:49.672Z,1.44
2022-11-22T05:33:16.030Z,1.46
2022-11-22T05:35:42.370Z,1.47
2022-11-22T05:38:08.722Z,1.48
2022-11-22T05:40:35.080Z,1.47
2022-11-22T05:43:01.429Z,1.49
2022-11-22T05:45:27.859Z,1.51
2022-11-22T05:47:54.229Z,1.53
2022-11-22T05:50:20.641Z,1.51
2022-11-22T05:52:47.076Z,1.54
2022-11-22T05:55:13.747Z,1.59
2022-11-22T05:57:40.108Z,1.60
2022-11-22T06:00:06.999Z,1.63
2022-11-22T06:02:33.531Z,1.62
2022-11-22T06:04:59.959Z,1.63
2022-11-22T06:07:26.370Z,1.64
2022-11-22T06:09:52.780Z,1.66
2022-11-22T06:12:19.160Z,1.66
2022-11-22T06:14:45.974Z,1.67
2022-11-22T06:17:12.360Z,1.67
2022-11-22T06:19:38.713Z,1.68
2022-11-22T06:22:06.028Z,1.71
2022-11-22T06:24:32.394Z,1.71
2022-11-22T06:26:58.721Z,1.71
2022-11-22T06:29:25.143Z,1.73
2022-11-22T06:31:51.489Z,1.76
2022-11-22T06:34:17.856Z,1.78
2022-11-22T06:36:44.319Z,1.77
2022-11-22T06:39:10.752Z,1.76
2022-11-22T06:41:37.378Z,1.77
2022-11-22T06:44:07.623Z,1.77
2022-11-22T06:46:34.126Z,1.80
2022-11-22T06:49:00.496Z,1.83
2022-11-22T06:51:30.574Z,1.81
2022-11-22T06:53:57.607Z,1.83
2022-11-22T06:56:25.943Z,1.86
2022-11-22T06:58:52.617Z,1.86
2022-11-22T07:01:20.589Z,1.86
2022-11-22T07:03:47.182Z,1.88
2022-11-22T07:06:14.201Z,1.87
2022-11-22T07:08:40.756Z,1.84
2022-11-22T07:11:07.530Z,1.86
2022-11-22T07:13:34.146Z,1.89
2022-11-22T07:16:01.746Z,1.89
2022-11-22T07:18:28.337Z,1.88
2022-11-22T07:21:06.739Z,1.92
2022-11-22T07:23:35.905Z,1.95
2022-11-22T07:26:02.265Z,2.00
2022-11-22T07:28:28.623Z,1.98
2022-11-22T07:31:01.838Z,1.97
2022-11-22T07:33:28.682Z,2.00
2022-11-22T07:35:55.208Z,2.03
2022-11-22T07:38:21.648Z,2.05
2022-11-22T07:40:48.005Z,2.06
2022-11-22T07:43:14.365Z,2.08
2022-11-22T07:45:40.729Z,2.08
2022-11-22T07:48:07.125Z,2.11
2022-11-22T07:50:33.473Z,2.12
2022-11-22T07:53:00.188Z,2.15
2022-11-22T07:55:27.246Z,2.15
2022-11-22T07:57:53.892Z,2.13
2022-11-22T08:00:20.444Z,2.16
2022-11-22T08:02:46.805Z,2.18
2022-11-22T08:05:13.192Z,2.21
2022-11-22T08:07:39.681Z,2.19
2022-11-22T08:10:06.719Z,2.25
2022-11-22T08:12:33.066Z,2.30
2022-11-22T08:14:59.465Z,2.30
2022-11-22T08:17:25.819Z,2.33
2022-11-22T08:19:53.463Z,2.35
2022-11-22T08:22:19.819Z,2.32
2022-11-22T08:24:46.173Z,2.37
2022-11-22T08:27:12.514Z,2.40
2022-11-22T08:29:38.895Z,2.40
2022-11-22T08:32:05.547Z,2.39
2022-11-22T08:34:31.896Z,2.38
2022-11-22T08:36:58.302Z,2.39
2022-11-22T08:39:24.675Z,2.44
2022-11-22T08:41:51.017Z,2.42
2022-11-22T08:44:17.410Z,2.47
2022-11-22T08:46:43.757Z,2.49
2022-11-22T08:49:13.346Z,2.54
2022-11-22T08:51:44.820Z,2.53
2022-11-22T08:54:12.094Z,2.50
2022-11-22T08:56:38.464Z,2.52
2022-11-22T08:59:05.132Z,2.53
2022-11-22T09:01:31.721Z,2.53
2022-11-22T09:03:58.114Z,2.50
2022-11-22T09:11:57.189Z,2.48
2022-11-22T09:14:23.600Z,2.48
2022-11-22T09:16:49.950Z,2.46
2022-11-22T09:19:16.381Z,2.46
2022-11-22T09:21:42.810Z,2.40
2022-11-22T09:24:09.166Z,2.44
2022-11-22T09:26:35.663Z,2.45
2022-11-22T09:29:02.990Z,2.47
2022-11-22T09:31:30.669Z,2.51
2022-11-22T09:33:57.052Z,2.51
2022-11-22T09:36:26.184Z,2.50
2022-11-22T09:38:52.789Z,2.51
2022-11-22T09:41:43.867Z,2.57
2022-11-22T09:44:35.807Z,2.59
2022-11-22T09:47:15.311Z,2.61
2022-11-22T09:50:03.422Z,2.63
2022-11-22T09:52:32.919Z,2.66
2022-11-22T09:55:01.041Z,2.68
2022-11-22T09:57:31.652Z,2.79
2022-11-22T10:00:06.058Z,2.84
2022-11-22T10:02:58.953Z,2.92
2022-11-22T10:05:38.492Z,2.96
2022-11-22T10:08:17.644Z,3.03
2022-11-22T10:10:43.997Z,3.08
2022-11-22T10:13:22.973Z,3.13
2022-11-22T10:15:56.084Z,3.18
2022-11-22T10:18:51.628Z,3.24
2022-11-22T10:21:18.243Z,3.31
2022-11-22T10:23:44.714Z,3.33
2022-11-22T10:26:27.265Z,3.36
2022-11-22T10:29:05.307Z,3.41
2022-11-22T10:31:43.895Z,3.43
2022-11-22T10:34:44.446Z,3.45
2022-11-22T10:37:26.496Z,3.50
2022-11-22T10:40:05.086Z,3.47
2022-11-22T10:42:59.288Z,3.46
2022-11-22T10:45:34.670Z,3.38
2022-11-22T10:48:19.537Z,3.39
2022-11-22T10:51:07.969Z,3.37
2022-11-22T10:53:47.033Z,3.43
2022-11-22T10:56:25.654Z,3.42
2022-11-22T10:59:11.041Z,3.52
2022-11-22T11:01:49.700Z,3.55
2022-11-22T11:04:16.059Z,3.52
2022-11-22T11:07:12.259Z,3.51
2022-11-22T11:12:41.146Z,3.55
2022-11-22T11:15:24.936Z,3.56
2022-11-22T11:17:58.345Z,3.61
2022-11-22T11:20:30.974Z,3.69
2022-11-22T11:25:47.880Z,3.74
2022-11-22T11:28:25.379Z,3.78
2022-11-22T11:31:07.830Z,3.85
2022-11-22T11:33:38.040Z,3.89
2022-11-22T11:36:05.666Z,3.95
2022-11-22T11:38:43.157Z,4.00
2022-11-22T11:41:25.429Z,4.03
2022-11-22T11:43:53.335Z,4.04
2022-11-22T11:46:23.549Z,4.08
2022-11-22T11:48:51.168Z,4.13
2022-11-22T11:51:35.646Z,4.20
2022-11-22T11:54:03.822Z,4.29
2022-11-22T11:56:34.661Z,4.36
2022-11-22T11:59:05.635Z,4.41
2022-11-22T12:01:38.503Z,4.44
2022-11-22T12:04:05.647Z,4.51
2022-11-22T12:06:32.499Z,4.58
2022-11-22T12:08:59.625Z,4.65
2022-11-22T12:11:47.544Z,4.70
2022-11-22T12:14:21.016Z,4.73
2022-11-22T12:16:48.007Z,4.67
2022-11-22T12:19:43.930Z,4.67
2022-11-22T12:22:35.503Z,4.68
2022-11-22T12:25:32.159Z,4.69
2022-11-22T12:28:23.936Z,4.73
2022-11-22T12:30:56.007Z,4.75
2022-11-22T12:33:29.613Z,4.81
2022-11-22T12:35:55.987Z,4.76
2022-11-22T12:38:28.869Z,4.82
2022-11-22T12:40:56.895Z,4.86
2022-11-22T12:43:28.897Z,4.87
2022-11-22T12:45:56.834Z,4.95
2022-11-22T12:48:44.583Z,4.90
2022-11-22T12:51:20.936Z,4.94
2022-11-22T12:53:47.347Z,4.97
2022-11-22T12:56:20.897Z,4.93
2022-11-22T12:59:10.270Z,4.96
2022-11-22T13:01:40.155Z,4.95
2022-11-22T13:04:09.405Z,4.97
2022-11-22T13:06:48.060Z,5.09
2022-11-22T13:09:17.808Z,5.03
2022-11-22T13:12:26.370Z,5.02
2022-11-22T13:14:55.074Z,5.00
2022-11-22T13:17:24.930Z,4.97
2022-11-22T13:20:01.337Z,4.91
2022-11-22T13:22:32.957Z,4.88
2022-11-22T13:25:28.691Z,4.90
2022-11-22T13:27:58.757Z,4.87
2022-11-22T13:30:26.384Z,4.81
2022-11-22T13:32:53.911Z,4.81
2022-11-22T13:35:26.208Z,4.81
2022-11-22T13:37:54.266Z,4.77
2022-11-22T13:40:25.326Z,4.78
2022-11-22T13:43:17.865Z,4.76
2022-11-22T13:45:51.743Z,4.66
2022-11-22T13:48:54.484Z,4.62
2022-11-22T13:51:53.649Z,4.58
2022-11-22T13:54:32.513Z,4.53
2022-11-22T13:57:00.575Z,4.50
2022-11-22T13:59:26.944Z,4.52
2022-11-22T14:02:01.130Z,4.55
2022-11-22T14:04:31.729Z,4.49
2022-11-22T14:07:10.802Z,4.42
2022-11-22T14:09:40.077Z,4.36
2022-11-22T14:12:28.141Z,4.33
2022-11-22T14:15:03.660Z,4.29
2022-11-22T14:17:55.087Z,4.27
2022-11-22T14:20:36.823Z,4.23
2022-11-22T14:23:18.382Z,4.22
2022-11-22T14:26:06.359Z,4.12
2022-11-22T14:28:54.018Z,4.07
2022-11-22T14:31:28.347Z,3.96
2022-11-22T14:34:24.099Z,3.92
2022-11-22T14:37:12.341Z,3.84
2022-11-22T14:39:44.874Z,3.78
2022-11-22T14:42:37.753Z,3.78
2022-11-22T14:45:10.650Z,3.74
2022-11-22T14:47:37.949Z,3.70
2022-11-22T14:50:05.103Z,3.63
2022-11-22T14:52:32.264Z,3.53
2022-11-22T14:55:05.893Z,3.46
2022-11-22T14:57:33.504Z,3.40
2022-11-22T15:00:06.646Z,3.34
2022-11-22T15:02:53.039Z,3.27
2022-11-22T15:09:10.193Z,3.10
2022-11-22T15:09:13.964Z,3.16
2022-11-22T15:11:50.481Z,3.00
2022-11-22T15:14:19.930Z,2.91
2022-11-22T15:59:01.536Z,2.36
2022-11-22T16:01:28.213Z,2.42
2022-11-22T16:03:56.465Z,2.50
2022-11-22T16:06:25.097Z,2.55
2022-11-22T16:09:05.493Z,2.62
2022-11-22T16:11:33.807Z,2.67
2022-11-22T16:14:00.140Z,2.74
2022-11-22T16:16:27.665Z,2.77
2022-11-22T16:18:54.395Z,2.82
2022-11-22T16:21:28.837Z,2.83
2022-11-22T16:24:11.491Z,2.82
2022-11-22T16:26:38.277Z,2.90
2022-11-22T16:29:16.194Z,2.95
2022-11-22T16:31:42.568Z,3.02
2022-11-22T16:34:13.159Z,3.04
2022-11-22T16:36:39.544Z,3.09
2022-11-22T16:39:05.883Z,3.11
2022-11-22T16:41:32.343Z,3.13
2022-11-22T16:44:04.109Z,3.16
2022-11-22T16:46:30.468Z,3.16
2022-11-22T16:48:56.889Z,3.08
2022-11-22T16:51:24.182Z,3.05
2022-11-22T16:53:51.133Z,3.02
2022-11-22T16:56:17.765Z,3.00
2022-11-22T16:58:44.354Z,3.02
2022-11-22T17:01:16.052Z,3.04
2022-11-22T17:03:42.841Z,3.08
2022-11-22T17:06:19.023Z,3.10
2022-11-22T17:08:49.390Z,3.10
2022-11-22T17:11:17.185Z,3.08
2022-11-22T17:13:43.580Z,3.05
2022-11-22T17:16:10.618Z,3.00
2022-11-22T17:18:37.687Z,2.92
2022-11-22T17:21:15.311Z,2.89
2022-11-22T17:23:41.705Z,2.85
2022-11-22T17:26:09.585Z,2.79
2022-11-22T17:28:35.991Z,2.75
2022-11-22T17:31:02.792Z,2.67
2022-11-22T17:33:29.325Z,2.60
2022-11-22T17:35:55.718Z,2.54
2022-11-22T17:38:22.063Z,2.53
2022-11-22T17:40:50.130Z,2.53
2022-11-22T17:43:16.505Z,2.45
2022-11-22T17:45:43.203Z,2.39
2022-11-22T17:48:10.554Z,2.34
2022-11-22T17:50:36.995Z,2.35
2022-11-22T17:53:03.496Z,2.35
2022-11-22T17:55:48.168Z,2.32
2022-11-22T17:58:16.330Z,2.34
2022-11-22T18:00:42.699Z,2.30
2022-11-22T18:03:09.091Z,2.26
2022-11-22T18:05:35.598Z,2.21
2022-11-22T18:08:02.047Z,2.14
2022-11-22T18:10:28.892Z,2.09
2022-11-22T18:13:19.867Z,2.04
2022-11-22T18:15:41.603Z,2.02
2022-11-22T18:18:09.452Z,2.09
2022-11-22T18:20:40.382Z,2.14
2022-11-22T18:23:06.793Z,2.14
2022-11-22T18:25:33.162Z,2.16
2022-11-22T18:27:59.685Z,2.18
2022-11-22T18:30:26.081Z,2.21
2022-11-22T18:32:52.445Z,2.20
2022-11-22T18:35:18.808Z,2.23
2022-11-22T18:37:45.345Z,2.25
2022-11-22T18:40:12.507Z,2.19
2022-11-22T18:42:38.950Z,2.17
2022-11-22T18:45:05.587Z,2.15
2022-11-22T18:47:31.949Z,2.14
2022-11-22T18:49:58.488Z,2.10
2022-11-22T18:52:26.427Z,2.05
2022-11-22T18:54:55.001Z,2.07
2022-11-22T18:57:21.361Z,2.10
2022-11-22T18:59:47.724Z,2.21
2022-11-22T19:02:14.093Z,2.26
2022-11-22T19:04:40.547Z,2.29
2022-11-22T19:07:06.914Z,2.34
2022-11-22T19:09:33.320Z,2.38
2022-11-22T19:11:59.805Z,2.40
2022-11-22T19:14:29.107Z,2.38
2022-11-22T19:16:55.886Z,2.37
2022-11-22T19:19:24.289Z,2.39
2022-11-22T19:21:50.678Z,2.42
2022-11-22T19:24:17.091Z,2.46
2022-11-22T19:26:43.552Z,2.50
2022-11-22T19:29:09.967Z,2.51
2022-11-22T19:31:36.777Z,2.56
2022-11-22T19:34:03.168Z,2.54
2022-11-22T19:36:34.106Z,2.51
2022-11-22T19:39:02.469Z,2.56
2022-11-22T19:41:28.864Z,2.58
2022-11-22T19:43:55.582Z,2.61
2022-11-22T19:46:21.997Z,2.62
2022-11-22T19:48:56.012Z,2.62
2022-11-22T19:51:22.613Z,2.63
2022-11-22T19:53:49.247Z,2.63
2022-11-22T19:56:18.756Z,2.61
2022-11-22T19:58:54.361Z,2.61
2022-11-22T20:01:21.702Z,2.62
2022-11-22T20:03:51.484Z,2.64
2022-11-22T20:06:18.067Z,2.65
2022-11-22T20:08:44.459Z,2.67
2022-11-22T20:11:12.117Z,2.64
2022-11-22T20:13:39.768Z,2.65
2022-11-22T20:16:23.710Z,2.62
2022-11-22T20:18:56.920Z,2.61
2022-11-22T20:21:23.731Z,2.58
2022-11-22T20:23:51.062Z,2.58
2022-11-22T20:26:17.736Z,2.56
2022-11-22T20:28:44.483Z,2.56
2022-11-22T20:31:18.083Z,2.56
2022-11-22T20:33:46.735Z,2.55
2022-11-22T20:36:17.904Z,2.45
2022-11-22T20:38:44.796Z,2.41
2022-11-22T20:41:11.826Z,2.47
2022-11-22T20:43:38.513Z,2.47
2022-11-22T20:46:09.430Z,2.45
2022-11-22T20:48:36.575Z,2.43
2022-11-22T20:51:05.320Z,2.40
2022-11-22T20:53:31.995Z,2.34
2022-11-22T20:55:58.409Z,2.36
2022-11-22T20:58:26.001Z,2.35
2022-11-22T21:00:53.246Z,2.34
2022-11-22T21:03:19.691Z,2.33
2022-11-22T21:05:46.623Z,2.32
2022-11-22T21:08:13.114Z,2.28
2022-11-22T21:10:39.510Z,2.23
2022-11-22T21:13:05.854Z,2.14
2022-11-22T21:15:32.223Z,2.17
2022-11-22T21:18:23.468Z,2.16
2022-11-22T21:20:45.968Z,2.15
2022-11-22T21:23:12.330Z,2.17
2022-11-22T21:25:38.683Z,2.17
2022-11-22T21:28:05.060Z,2.14
2022-11-22T21:30:31.445Z,2.10
2022-11-22T21:32:57.801Z,2.08
2022-11-22T21:35:24.161Z,2.05
2022-11-22T21:37:53.970Z,2.05
2022-11-22T21:40:20.299Z,2.08
2022-11-22T21:42:46.656Z,2.17
2022-11-22T21:45:13.086Z,2.18
2022-11-22T21:47:39.466Z,2.25
2022-11-22T21:50:11.406Z,2.30
2022-11-22T21:52:38.240Z,2.36
2022-11-22T21:55:05.039Z,2.39
2022-11-22T21:57:31.444Z,2.51
2022-11-22T21:59:57.802Z,2.63
2022-11-22T22:02:24.244Z,2.68
2022-11-22T22:04:50.600Z,2.67
2022-11-22T22:07:36.769Z,2.70
2022-11-22T22:10:04.399Z,2.84
2022-11-22T22:12:30.872Z,2.85
2022-11-22T22:14:57.228Z,2.79
2022-11-22T22:17:23.579Z,2.77
2022-11-22T22:19:52.195Z,2.79
2022-11-22T22:22:18.592Z,2.80
2022-11-22T22:24:44.941Z,2.82
2022-11-22T22:27:11.325Z,2.84
2022-11-22T22:29:37.685Z,2.82
2022-11-22T22:32:10.254Z,2.82
2022-11-22T22:34:37.019Z,2.81
2022-11-22T22:37:03.382Z,2.78
2022-11-22T22:39:30.060Z,2.80
2022-11-22T22:41:56.694Z,2.85
2022-11-22T22:44:23.083Z,2.93
2022-11-22T22:46:49.421Z,3.01
2022-11-22T22:49:15.778Z,3.08
2022-11-22T22:51:42.162Z,3.06
2022-11-22T22:54:10.046Z,3.05
2022-11-22T22:56:36.429Z,3.03
2022-11-22T22:59:05.070Z,3.15
2022-11-22T23:01:31.793Z,3.20
2022-11-22T23:04:04.687Z,3.20
2022-11-22T23:06:32.795Z,3.20
2022-11-22T23:08:59.305Z,3.22
2022-11-22T23:11:45.978Z,3.17
2022-11-22T23:14:13.111Z,3.16
2022-11-22T23:16:39.537Z,3.19
2022-11-22T23:19:06.356Z,3.18
2022-11-22T23:21:32.832Z,3.18
2022-11-22T23:23:59.174Z,3.27
2022-11-22T23:26:25.666Z,3.29
2022-11-22T23:28:53.374Z,3.30
2022-11-22T23:31:19.859Z,3.33
2022-11-22T23:33:46.274Z,3.39
2022-11-22T23:36:14.598Z,3.43
2022-11-22T23:38:41.414Z,3.50
2022-11-22T23:41:10.133Z,3.56
2022-11-22T23:43:36.529Z,3.62
2022-11-22T23:46:02.894Z,3.68
2022-11-22T23:48:29.289Z,3.74
2022-11-22T23:50:55.683Z,3.76
2022-11-22T23:53:22.105Z,3.82
2022-11-22T23:55:48.449Z,3.85
2022-11-22T23:58:14.822Z,3.83
